Time;durP1;ratioP1;P1;durP2;ratioP2;P2;SDS_P1;SDS_P2;PMS_P1;PMS_P2;Temp;Humidity;BMP_temperature;BMP_pressure;BME280_temperature;BME280_humidity;BME280_pressure;Samples;Min_cycle;Max_cycle;Signal;HPM_P1;HPM_P2
2022/05/03 00:01:27;;;;;;;6.82;4.40;;;15.50;91.60;;;;;;5092297;28;20358;-76
2022/05/03 00:04:14;;;;;;;7.25;4.97;;;15.50;91.90;;;;;;5088346;28;20106;-76
2022/05/03 00:07:01;;;;;;;5.07;4.63;;;15.50;91.70;;;;;;5092209;28;20028;-77
2022/05/03 00:09:59;;;;;;;5.00;4.50;;;15.40;91.90;;;;;;5091677;28;20031;-75
2022/05/03 00:12:44;;;;;;;7.47;4.90;;;15.40;92.50;;;;;;5068034;28;20040;-75
2022/05/03 00:15:12;;;;;;;5.78;4.93;;;15.30;93.00;;;;;;5091775;28;20558;-75
2022/05/03 00:17:41;;;;;;;5.57;4.65;;;15.30;93.40;;;;;;5091573;28;20020;-76
2022/05/03 00:20:07;;;;;;;5.57;5.07;;;15.20;93.30;;;;;;5091753;28;20031;-76
2022/05/03 00:22:34;;;;;;;5.80;5.18;;;15.20;93.30;;;;;;5107251;28;20028;-75
2022/05/03 00:25:00;;;;;;;5.13;4.63;;;15.00;93.50;;;;;;5091777;28;20036;-76
2022/05/03 00:27:27;;;;;;;6.80;5.32;;;14.90;94.50;;;;;;5091400;28;20028;-76
2022/05/03 00:29:54;;;;;;;5.78;5.15;;;14.90;94.30;;;;;;5091830;28;20039;-76
2022/05/03 00:32:26;;;;;;;5.80;5.30;;;14.80;94.80;;;;;;5091295;28;20095;-76
2022/05/03 00:34:52;;;;;;;7.50;5.28;;;14.70;94.80;;;;;;5091789;28;20417;-76
2022/05/03 00:37:18;;;;;;;8.88;5.00;;;14.60;95.00;;;;;;5091621;28;20047;-76
2022/05/03 00:39:45;;;;;;;5.63;4.63;;;14.50;95.30;;;;;;5091857;28;20016;-76
2022/05/03 00:42:16;;;;;;;5.53;4.88;;;14.60;95.80;;;;;;5091351;28;20039;-76
2022/05/03 00:45:01;;;;;;;;;;;14.60;95.60;;;;;;5092263;28;20174;-76
2022/05/03 00:48:01;;;;;;;5.75;4.95;;;14.50;95.30;;;;;;5091423;28;19908;-76
2022/05/03 00:50:48;;;;;;;5.80;5.20;;;14.50;95.70;;;;;;5090788;28;20078;-75
2022/05/03 00:53:30;;;;;;;5.78;5.20;;;14.50;95.90;;;;;;5091664;28;20028;-75
2022/05/03 00:56:14;;;;;;;;;;;14.50;95.90;;;;;;5092086;28;20051;-75
2022/05/03 00:58:48;;;;;;;6.38;5.53;;;14.50;95.90;;;;;;5091040;28;19904;-75
2022/05/03 01:01:32;;;;;;;10.77;5.28;;;14.60;95.50;;;;;;5091338;28;20380;-76
2022/05/03 01:03:58;;;;;;;7.20;4.95;;;14.60;95.00;;;;;;5090883;28;20488;-75
2022/05/03 01:06:39;;;;;;;6.50;5.15;;;14.50;94.60;;;;;;5090575;28;20055;-75
2022/05/03 01:09:07;;;;;;;6.03;5.20;;;14.50;94.50;;;;;;5094798;28;20028;-75
2022/05/03 01:11:38;;;;;;;7.15;5.40;;;14.50;94.60;;;;;;5094703;28;20028;-75
2022/05/03 01:14:20;;;;;;;6.10;5.18;;;14.50;94.00;;;;;;5094893;28;20516;-76
2022/05/03 01:16:58;;;;;;;6.22;5.35;;;14.60;94.10;;;;;;5094997;28;20024;-76
2022/05/03 01:19:32;;;;;;;6.63;5.25;;;14.50;94.10;;;;;;5094647;28;20032;-76
2022/05/03 01:22:16;;;;;;;6.38;4.97;;;14.50;94.00;;;;;;5111070;28;20028;-75
2022/05/03 01:25:06;;;;;;;5.65;5.15;;;14.50;94.70;;;;;;5094368;28;20024;-76
2022/05/03 01:27:48;;;;;;;6.63;4.57;;;14.50;94.50;;;;;;5094170;28;20049;-76
2022/05/03 01:30:16;;;;;;;6.95;5.32;;;14.50;94.30;;;;;;5094921;28;20412;-76
2022/05/03 01:32:43;;;;;;;6.25;5.13;;;14.50;94.50;;;;;;5092888;28;20377;-76
2022/05/03 01:35:13;;;;;;;6.32;4.90;;;14.50;94.80;;;;;;5093414;28;20046;-76
2022/05/03 01:38:01;;;;;;;5.80;5.07;;;14.50;94.80;;;;;;5093880;28;20346;-76
2022/05/03 01:40:52;;;;;;;6.53;4.80;;;14.40;94.50;;;;;;5094045;28;20099;-76
2022/05/03 01:43:39;;;;;;;6.82;5.55;;;14.40;95.20;;;;;;5094596;28;20031;-76
2022/05/03 01:46:16;;;;;;;7.90;6.00;;;14.30;94.80;;;;;;5094358;28;20032;-76
2022/05/03 01:52:33;;;;;;;8.25;5.07;;;14.20;95.10;;;;;;5094517;28;20067;-77
2022/05/03 01:55:03;;;;;;;;;;;14.20;95.40;;;;;;5095012;28;20039;-76
2022/05/03 01:57:56;;;;;;;8.52;5.45;;;14.10;95.10;;;;;;5093705;28;19904;-76
2022/05/03 02:00:22;;;;;;;7.00;5.38;;;14.00;95.30;;;;;;5092520;28;20054;-76
2022/05/03 02:03:12;;;;;;;6.68;5.30;;;13.90;95.70;;;;;;5109798;28;20028;-76
2022/05/03 02:05:46;;;;;;;5.38;4.85;;;13.80;96.50;;;;;;5093378;28;20392;-76
2022/05/03 02:08:19;;;;;;;5.72;4.80;;;13.70;97.10;;;;;;5094250;28;20054;-76
2022/05/03 02:11:00;;;;;;;5.45;4.95;;;13.80;97.00;;;;;;5093631;28;20089;-76
2022/05/03 02:17:10;;;;;;;5.75;5.07;;;13.70;96.60;;;;;;5093296;28;20047;-76
2022/05/03 02:20:01;;;;;;;6.15;5.18;;;13.70;96.70;;;;;;5092217;28;20405;-77
2022/05/03 02:22:54;;;;;;;5.30;4.80;;;13.70;96.40;;;;;;5093350;28;20112;-75
2022/05/03 02:25:35;;;;;;;9.43;4.95;;;13.70;96.10;;;;;;5093511;28;20114;-75
2022/05/03 02:28:22;;;;;;;5.72;4.60;;;13.70;95.90;;;;;;5094270;28;20029;-76
2022/05/03 02:30:51;;;;;;;7.93;4.53;;;13.70;96.20;;;;;;5093405;28;20341;-76
2022/05/03 02:33:25;;;;;;;5.97;5.03;;;13.70;95.20;;;;;;5093644;28;20047;-76
2022/05/03 02:35:56;;;;;;;5.05;4.22;;;13.70;95.30;;;;;;5093411;28;20056;-76
2022/05/03 02:38:40;;;;;;;5.80;4.78;;;13.70;94.70;;;;;;5093280;28;20028;-76
2022/05/03 02:41:10;;;;;;;7.80;4.35;;;13.70;94.70;;;;;;5093503;28;20028;-76
2022/05/03 02:43:38;;;;;;;4.50;4.10;;;13.70;94.80;;;;;;5092604;28;20040;-76
2022/05/03 02:46:32;;;;;;;6.10;4.20;;;13.70;94.30;;;;;;5093794;28;20040;-76
2022/05/03 02:49:09;;;;;;;6.82;4.63;;;13.70;94.60;;;;;;5093722;28;20034;-76
2022/05/03 02:51:51;;;;;;;5.90;5.13;;;13.60;94.00;;;;;;5093039;28;20024;-76
2022/05/03 02:54:36;;;;;;;6.93;4.20;;;13.60;94.90;;;;;;5093306;28;20115;-76
2022/05/03 02:57:31;;;;;;;6.97;4.60;;;13.60;94.80;;;;;;5093099;28;20032;-76
2022/05/03 03:03:28;;;;;;;5.15;4.40;;;13.70;94.20;;;;;;5091184;28;20030;-77
2022/05/03 03:06:00;;;;;;;6.18;4.53;;;13.70;93.80;;;;;;5088591;28;20131;-77
2022/05/03 03:08:30;;;;;;;5.47;4.97;;;13.70;93.30;;;;;;5092296;28;20069;-76
2022/05/03 03:11:07;;;;;;;5.45;3.88;;;13.70;93.10;;;;;;5092450;28;20020;-77
2022/05/03 03:14:14;;;;;;;7.80;5.70;;;13.60;93.10;;;;;;5071786;28;20040;-75
2022/05/03 03:16:51;;;;;;;7.90;4.90;;;13.60;93.80;;;;;;5069473;28;20040;-76
2022/05/03 03:19:43;;;;;;;7.55;4.93;;;13.60;94.10;;;;;;5072889;28;20052;-75
2022/05/03 03:22:14;;;;;;;5.47;4.85;;;13.60;93.90;;;;;;5072357;28;20509;-75
2022/05/03 03:24:40;;;;;;;8.48;4.55;;;13.60;93.80;;;;;;5071901;28;20032;-75
2022/05/03 03:27:08;;;;;;;6.22;4.97;;;13.60;93.80;;;;;;5072248;28;20337;-75
2022/05/03 03:29:36;;;;;;;6.85;5.05;;;13.60;93.60;;;;;;5072027;28;20025;-76
2022/05/03 03:32:05;;;;;;;6.53;4.82;;;13.60;93.70;;;;;;5071740;28;20056;-76
2022/05/03 03:34:32;;;;;;;6.55;5.15;;;13.60;94.00;;;;;;5071446;28;20477;-75
2022/05/03 03:37:02;;;;;;;6.05;4.70;;;13.60;93.90;;;;;;5081560;28;20024;-75
2022/05/03 03:39:30;;;;;;;7.78;4.78;;;13.50;93.60;;;;;;5091584;28;20031;-80
2022/05/03 03:42:01;;;;;;;8.55;5.05;;;13.50;93.60;;;;;;5095550;28;20023;-77
2022/05/03 03:44:28;;;;;;;5.97;4.32;;;13.50;93.80;;;;;;5092919;28;20062;-75
2022/05/03 03:46:55;;;;;;;8.85;5.30;;;13.50;94.00;;;;;;5092474;28;20152;-75
2022/05/03 03:49:20;;;;;;;10.90;5.20;;;13.50;93.80;;;;;;5092804;28;20024;-76
2022/05/03 03:51:47;;;;;;;7.07;5.25;;;13.50;94.00;;;;;;5102369;28;20421;-75
2022/05/03 03:54:13;;;;;;;5.97;4.95;;;13.50;93.90;;;;;;5099067;28;20085;-75
2022/05/03 03:56:39;;;;;;;7.35;5.15;;;13.50;93.60;;;;;;5091627;28;20478;-76
2022/05/03 03:59:06;;;;;;;5.72;5.07;;;13.40;94.10;;;;;;5092100;28;20457;-76
2022/05/03 04:01:31;;;;;;;5.35;4.85;;;13.40;94.20;;;;;;5091711;28;20035;-76
2022/05/03 04:03:58;;;;;;;5.97;5.13;;;13.40;94.80;;;;;;5092124;28;20032;-76
2022/05/03 04:06:24;;;;;;;9.95;4.80;;;13.40;94.00;;;;;;5092196;28;20034;-76
2022/05/03 04:08:51;;;;;;;7.00;4.85;;;13.40;94.20;;;;;;5090293;28;20032;-76
2022/05/03 04:11:18;;;;;;;7.18;4.50;;;13.40;94.10;;;;;;5091873;28;20051;-77
2022/05/03 04:13:44;;;;;;;6.00;5.40;;;13.30;93.80;;;;;;5091391;28;20093;-74
2022/05/03 04:18:55;;;;;;;8.77;5.13;;;13.30;94.30;;;;;;5091249;28;20093;-75
2022/05/03 04:21:20;;;;;;;6.82;5.00;;;13.40;94.50;;;;;;5091930;28;20173;-75
2022/05/03 04:23:46;;;;;;;6.75;4.47;;;13.40;94.30;;;;;;5106988;28;20123;-75
2022/05/03 04:26:12;;;;;;;6.97;5.15;;;13.50;94.30;;;;;;5092046;28;20103;-75
2022/05/03 04:28:39;;;;;;;5.60;5.10;;;13.50;94.00;;;;;;5091777;28;20035;-74
2022/05/03 04:31:08;;;;;;;5.80;5.18;;;13.60;94.00;;;;;;5091619;28;20024;-75
2022/05/03 04:33:33;;;;;;;6.65;5.57;;;13.60;94.00;;;;;;5091309;28;20028;-78
2022/05/03 04:35:59;;;;;;;11.70;4.93;;;13.70;93.70;;;;;;5091959;28;20111;-75
2022/05/03 04:38:25;;;;;;;6.70;5.53;;;13.80;93.40;;;;;;5091896;28;20469;-76
2022/05/03 04:41:00;;;;;;;6.03;4.97;;;13.90;93.30;;;;;;5091346;28;20046;-76
2022/05/03 04:43:26;;;;;;;6.03;4.95;;;14.00;92.90;;;;;;5094045;28;20024;-73
2022/05/03 04:45:52;;;;;;;11.45;5.00;;;14.20;92.70;;;;;;5095206;28;20349;-75
2022/05/03 04:48:18;;;;;;;8.07;5.20;;;14.30;92.20;;;;;;5095816;28;20112;-75
2022/05/03 04:50:44;;;;;;;6.30;4.60;;;14.40;91.80;;;;;;5092493;28;20024;-75
2022/05/03 04:53:09;;;;;;;7.03;4.82;;;14.50;91.60;;;;;;5094956;28;20062;-74
2022/05/03 04:55:38;;;;;;;10.35;5.18;;;14.70;90.90;;;;;;5095389;28;20032;-76
2022/05/03 04:58:23;;;;;;;6.05;4.85;;;14.80;90.80;;;;;;5095840;28;20488;-75
2022/05/03 05:00:49;;;;;;;10.38;5.85;;;15.00;90.60;;;;;;5094941;28;20032;-74
2022/05/03 05:03:14;;;;;;;6.40;5.05;;;15.10;90.20;;;;;;5095694;28;20088;-74
2022/05/03 05:05:40;;;;;;;8.18;6.03;;;15.20;89.30;;;;;;5095022;28;20036;-75
2022/05/03 05:08:07;;;;;;;7.28;5.47;;;15.30;88.50;;;;;;5095877;28;20425;-72
2022/05/03 05:10:33;;;;;;;11.98;8.10;;;15.50;88.40;;;;;;5095957;28;20028;-76
2022/05/03 05:13:00;;;;;;;8.50;6.25;;;15.70;86.60;;;;;;5095131;28;20495;-76
2022/05/03 05:15:27;;;;;;;7.22;6.05;;;15.90;86.50;;;;;;5094456;28;20052;-77
2022/05/03 05:17:58;;;;;;;12.02;6.75;;;16.00;86.30;;;;;;5094108;28;20020;-76
2022/05/03 05:20:25;;;;;;;11.32;6.32;;;16.20;84.90;;;;;;5095641;28;20060;-75
2022/05/03 05:22:51;;;;;;;16.05;6.93;;;16.40;83.90;;;;;;5093538;28;20099;-75
2022/05/03 05:25:17;;;;;;;12.05;6.43;;;16.60;82.30;;;;;;5094340;28;20036;-75
2022/05/03 05:27:42;;;;;;;8.95;6.90;;;16.80;81.10;;;;;;5089701;28;20487;-76
2022/05/03 05:30:09;;;;;;;8.90;6.53;;;16.90;80.30;;;;;;5094511;28;20024;-76
2022/05/03 05:32:35;;;;;;;12.25;6.70;;;17.20;79.30;;;;;;5094657;28;20098;-80
2022/05/03 05:35:04;;;;;;;12.88;6.70;;;17.50;77.10;;;;;;5094277;28;20019;-77
2022/05/03 05:37:32;;;;;;;11.52;7.20;;;17.80;75.40;;;;;;5094316;28;20024;-76
2022/05/03 05:39:58;;;;;;;11.40;6.47;;;18.20;74.60;;;;;;5109652;28;20051;-76
2022/05/03 05:42:26;;;;;;;12.00;6.03;;;18.70;72.60;;;;;;5094624;28;20047;-74
2022/05/03 05:44:51;;;;;;;11.10;5.97;;;19.30;68.60;;;;;;5105941;28;20110;-77
2022/05/03 05:47:18;;;;;;;9.93;6.05;;;20.30;66.10;;;;;;5115051;28;20107;-77
2022/05/03 05:49:43;;;;;;;13.98;5.93;;;21.60;60.70;;;;;;5112008;28;20055;-76
2022/05/03 05:54:53;;;;;;;8.25;5.18;;;23.60;52.90;;;;;;5093393;28;20424;-76
2022/05/03 05:57:20;;;;;;;11.43;5.18;;;24.60;49.20;;;;;;5094307;28;20020;-76
2022/05/03 05:59:46;;;;;;;14.73;5.22;;;25.00;48.00;;;;;;5093614;28;20040;-76
2022/05/03 06:02:11;;;;;;;8.50;5.35;;;25.60;46.40;;;;;;5094071;28;20027;-76
2022/05/03 06:04:37;;;;;;;8.35;5.38;;;26.20;45.40;;;;;;5093924;28;20028;-80
2022/05/03 06:07:03;;;;;;;10.93;5.05;;;26.60;43.90;;;;;;5093793;28;20036;-76
2022/05/03 06:09:29;;;;;;;10.80;5.10;;;27.10;43.00;;;;;;5093924;28;20024;-76
2022/05/03 06:11:54;;;;;;;5.53;4.50;;;27.40;42.40;;;;;;5093503;28;20024;-77
2022/05/03 06:14:20;;;;;;;6.50;4.72;;;27.80;41.00;;;;;;5093718;28;20113;-77
2022/05/03 06:16:50;;;;;;;8.70;4.88;;;28.00;40.50;;;;;;5093030;28;20522;-77
2022/05/03 06:19:16;;;;;;;9.65;5.68;;;28.00;40.00;;;;;;5093879;28;20032;-77
2022/05/03 06:21:42;;;;;;;8.88;5.65;;;27.90;40.00;;;;;;5093283;28;20028;-76
2022/05/03 06:24:08;;;;;;;7.68;6.15;;;27.30;39.90;;;;;;5093787;28;20020;-76
2022/05/03 06:26:34;;;;;;;9.23;5.78;;;26.80;40.70;;;;;;5093639;28;20032;-76
2022/05/03 06:29:01;;;;;;;8.68;5.97;;;26.20;41.30;;;;;;5093139;28;20105;-76
2022/05/03 06:31:28;;;;;;;11.60;5.57;;;25.90;42.10;;;;;;5093477;28;20036;-75
2022/05/03 06:33:55;;;;;;;7.28;5.88;;;25.60;42.60;;;;;;5092926;28;20418;-76
2022/05/03 06:36:21;;;;;;;9.55;5.68;;;25.40;43.10;;;;;;5093340;28;20031;-76
2022/05/03 06:38:46;;;;;;;9.73;5.60;;;25.30;42.90;;;;;;5092614;28;20031;-76
2022/05/03 06:41:13;;;;;;;8.27;6.03;;;25.20;43.30;;;;;;5093178;28;20024;-76
2022/05/03 06:43:39;;;;;;;6.97;6.22;;;25.10;43.40;;;;;;5092989;28;20111;-76
2022/05/03 06:46:05;;;;;;;9.93;6.75;;;25.10;43.90;;;;;;5092668;28;20477;-76
2022/05/03 06:48:30;;;;;;;10.55;6.75;;;25.30;43.70;;;;;;5092697;28;20366;-75
2022/05/03 06:50:56;;;;;;;8.82;6.63;;;26.20;43.00;;;;;;5092268;28;20063;-76
2022/05/03 06:53:21;;;;;;;9.80;6.72;;;27.00;41.00;;;;;;5092819;28;20111;-76
2022/05/03 06:55:47;;;;;;;7.63;6.72;;;27.20;40.90;;;;;;5091828;28;20444;-75
2022/05/03 06:58:13;;;;;;;11.35;7.13;;;26.90;40.70;;;;;;5092548;28;20032;-77
2022/05/03 07:00:39;;;;;;;8.38;7.22;;;26.50;40.80;;;;;;5092803;28;20081;-77
2022/05/03 07:03:05;;;;;;;10.98;7.20;;;26.30;41.10;;;;;;5092043;28;20440;-77
2022/05/03 07:05:31;;;;;;;13.23;6.93;;;26.20;41.70;;;;;;5092187;28;20024;-76
2022/05/03 07:07:57;;;;;;;14.10;7.55;;;26.20;42.40;;;;;;5092002;28;20047;-77
2022/05/03 07:10:23;;;;;;;9.40;7.50;;;26.40;41.50;;;;;;5092514;28;20024;-77
2022/05/03 07:12:49;;;;;;;12.23;7.57;;;26.80;41.40;;;;;;5091936;28;20028;-76
2022/05/03 07:15:14;;;;;;;13.38;7.60;;;27.10;40.70;;;;;;5092923;28;20044;-77
2022/05/03 07:23:11;;;;;;;12.45;6.90;;;27.20;40.50;;;;;;5092315;28;20098;-76
2022/05/03 07:25:38;;;;;;;18.08;7.28;;;27.20;40.70;;;;;;5092123;28;20028;-76
2022/05/03 07:28:05;;;;;;;12.55;7.13;;;27.30;40.80;;;;;;5091101;28;20413;-76
2022/05/03 07:30:30;;;;;;;12.02;6.85;;;27.50;40.50;;;;;;5092054;28;20032;-75
2022/05/03 07:32:56;;;;;;;11.32;6.40;;;27.70;40.20;;;;;;5091363;28;20111;-77
2022/05/03 07:35:23;;;;;;;10.27;5.88;;;28.00;40.30;;;;;;5091946;28;20405;-76
2022/05/03 07:37:51;;;;;;;10.45;6.15;;;28.50;39.60;;;;;;5091221;28;20118;-75
2022/05/03 07:40:17;;;;;;;8.45;5.47;;;28.70;38.40;;;;;;5090477;28;20426;-76
2022/05/03 07:42:42;;;;;;;10.63;5.68;;;29.00;38.30;;;;;;5091536;28;20034;-77
2022/05/03 07:45:09;;;;;;;11.40;6.00;;;29.10;38.10;;;;;;5090536;28;20183;-75
2022/05/03 07:47:35;;;;;;;9.23;5.57;;;29.30;37.40;;;;;;5091102;28;20082;-75
2022/05/03 07:50:02;;;;;;;6.20;5.35;;;29.40;36.70;;;;;;5091205;28;20469;-76
2022/05/03 07:52:28;;;;;;;5.90;4.80;;;29.60;36.00;;;;;;5091835;28;20024;-76
2022/05/03 07:54:54;;;;;;;5.03;4.53;;;29.90;36.40;;;;;;5091091;28;20077;-77
2022/05/03 07:57:20;;;;;;;10.82;4.88;;;30.60;35.20;;;;;;5091768;28;20070;-77
2022/05/03 07:59:46;;;;;;;5.40;3.90;;;31.00;35.30;;;;;;5090989;28;20063;-77
2022/05/03 08:02:13;;;;;;;4.40;4.00;;;31.80;34.50;;;;;;5092007;28;20027;-76
2022/05/03 08:04:39;;;;;;;6.57;3.97;;;31.90;32.30;;;;;;5091711;28;20078;-77
2022/05/03 08:07:05;;;;;;;4.50;3.50;;;31.50;32.40;;;;;;5091137;28;20028;-77
2022/05/03 08:09:32;;;;;;;4.30;3.58;;;31.50;32.10;;;;;;5091406;28;20031;-75
2022/05/03 08:12:00;;;;;;;5.57;3.70;;;31.50;33.40;;;;;;5091161;28;20115;-76
2022/05/03 08:14:28;;;;;;;4.03;3.63;;;31.40;31.90;;;;;;5091428;28;20182;-76
2022/05/03 08:16:57;;;;;;;6.93;3.60;;;31.20;31.50;;;;;;5092844;28;20024;-77
2022/05/03 08:19:23;;;;;;;3.47;2.97;;;31.10;31.80;;;;;;5095919;28;20024;-77
2022/05/03 08:21:49;;;;;;;7.68;3.50;;;30.90;31.30;;;;;;5095347;28;20024;-77
2022/05/03 08:24:15;;;;;;;6.30;3.25;;;30.80;32.00;;;;;;5095754;28;20032;-75
2022/05/03 08:26:41;;;;;;;4.32;3.90;;;30.60;31.50;;;;;;5095834;28;20184;-76
2022/05/03 08:29:06;;;;;;;4.85;3.10;;;30.70;32.30;;;;;;5095158;28;20039;-76
2022/05/03 08:31:32;;;;;;;4.80;3.05;;;30.50;32.10;;;;;;5095704;28;20341;-77
2022/05/03 08:34:01;;;;;;;5.47;3.00;;;30.60;31.30;;;;;;5095020;28;20049;-77
2022/05/03 08:36:29;;;;;;;5.38;3.40;;;30.40;31.60;;;;;;5095530;28;20057;-77
2022/05/03 08:44:22;;;;;;;4.88;2.60;;;30.50;30.30;;;;;;5095363;28;20084;-77
2022/05/03 08:46:50;;;;;;;4.63;2.90;;;30.20;30.60;;;;;;5095214;28;20032;-78
2022/05/03 08:49:17;;;;;;;4.07;3.40;;;29.70;30.90;;;;;;5095309;28;20085;-76
2022/05/03 08:51:44;;;;;;;5.53;2.97;;;29.50;32.60;;;;;;5095228;28;20050;-77
2022/05/03 08:54:10;;;;;;;5.88;2.70;;;29.40;32.30;;;;;;5094571;28;20069;-77
2022/05/03 08:56:38;;;;;;;5.05;3.17;;;29.20;32.70;;;;;;5095482;28;20020;-76
2022/05/03 08:59:03;;;;;;;6.45;2.80;;;29.30;33.10;;;;;;5094713;28;20111;-76
2022/05/03 09:01:29;;;;;;;5.10;2.97;;;29.40;32.80;;;;;;5095240;28;20440;-76
2022/05/03 09:03:56;;;;;;;5.15;2.60;;;29.40;33.30;;;;;;5094599;28;20024;-76
2022/05/03 09:06:40;;;;;;;7.70;2.60;;;29.30;32.00;;;;;;5095229;28;20434;-76
2022/05/03 09:09:09;;;;;;;4.00;2.50;;;29.10;32.10;;;;;;5094640;28;20039;-76
2022/05/03 09:11:47;;;;;;;2.30;2.10;;;29.00;33.20;;;;;;5110670;28;20471;-77
2022/05/03 09:14:34;;;;;;;5.20;2.30;;;28.90;32.60;;;;;;5093926;28;20511;-77
2022/05/03 09:16:59;;;;;;;5.05;2.20;;;28.80;31.60;;;;;;5094516;28;20057;-76
2022/05/03 09:19:25;;;;;;;3.05;1.92;;;28.60;32.70;;;;;;5095010;28;20103;-76
2022/05/03 09:25:07;;;;;;;4.70;2.33;;;28.30;32.40;;;;;;5094718;28;20081;-76
2022/05/03 09:27:32;;;;;;;3.50;2.38;;;28.20;34.30;;;;;;5095094;28;20038;-76
2022/05/03 09:30:05;;;;;;;3.90;2.40;;;28.10;33.70;;;;;;5093640;28;20098;-76
2022/05/03 09:32:38;;;;;;;7.50;2.40;;;28.10;34.40;;;;;;5094949;28;20055;-77
2022/05/03 09:35:05;;;;;;;3.28;2.10;;;28.00;33.30;;;;;;5093870;28;20020;-75
2022/05/03 09:37:41;;;;;;;2.78;1.85;;;27.80;33.80;;;;;;5094613;28;20028;-76
2022/05/03 09:40:12;;;;;;;3.97;1.92;;;27.80;33.70;;;;;;5094017;28;20031;-77
2022/05/03 09:42:40;;;;;;;5.03;3.33;;;27.70;35.10;;;;;;5094575;28;20437;-76
2022/05/03 09:45:08;;;;;;;3.13;1.80;;;27.70;34.20;;;;;;5093313;28;20028;-76
2022/05/03 09:47:49;;;;;;;3.08;1.83;;;27.80;32.90;;;;;;5094325;28;20055;-75
2022/05/03 09:50:41;;;;;;;3.75;2.40;;;27.70;32.30;;;;;;5093697;28;20028;-76
2022/05/03 09:53:18;;;;;;;4.05;2.08;;;27.50;32.00;;;;;;5093676;28;20035;-76
2022/05/03 09:55:45;;;;;;;3.13;1.42;;;27.30;32.30;;;;;;5094319;28;20039;-76
2022/05/03 09:58:13;;;;;;;3.22;1.80;;;27.20;31.80;;;;;;5093560;28;20032;-76
2022/05/03 10:00:40;;;;;;;6.60;1.95;;;27.10;31.20;;;;;;5093949;28;20023;-76
2022/05/03 10:03:09;;;;;;;4.38;2.13;;;27.00;31.80;;;;;;5093240;28;20024;-77
2022/05/03 10:05:35;;;;;;;2.42;1.77;;;27.00;33.10;;;;;;5093352;28;20027;-77
2022/05/03 10:08:03;;;;;;;4.20;1.83;;;26.80;31.40;;;;;;5092824;28;20484;-77
2022/05/03 10:10:29;;;;;;;2.45;1.60;;;26.80;31.80;;;;;;5094036;28;20028;-76
2022/05/03 10:12:55;;;;;;;5.07;1.90;;;26.80;31.80;;;;;;5092973;28;20047;-80
2022/05/03 10:21:29;;;;;;;3.63;1.80;;;26.90;31.90;;;;;;5093294;28;20294;-76
2022/05/03 10:24:07;;;;;;;4.78;1.45;;;26.90;31.60;;;;;;5093205;28;20115;-80
2022/05/03 10:26:54;;;;;;;2.75;1.45;;;26.80;31.10;;;;;;5093442;28;20369;-76
2022/05/03 10:29:25;;;;;;;5.80;1.95;;;26.80;31.00;;;;;;5092878;28;20353;-77
2022/05/03 10:32:06;;;;;;;2.80;1.67;;;26.70;30.90;;;;;;5093661;28;20081;-75
2022/05/03 10:34:42;;;;;;;5.30;1.80;;;26.70;32.50;;;;;;5093397;28;20056;-75
2022/05/03 10:37:10;;;;;;;3.17;1.63;;;26.60;31.70;;;;;;5092814;28;20032;-75
2022/05/03 10:39:43;;;;;;;3.92;2.00;;;26.50;31.90;;;;;;5092588;28;20073;-75
2022/05/03 10:42:14;;;;;;;3.17;1.70;;;26.20;32.30;;;;;;5092122;28;20396;-75
2022/05/03 10:44:55;;;;;;;;;;;26.30;30.60;;;;;;5093657;28;20024;-75
2022/05/03 10:47:41;;;;;;;2.30;1.80;;;26.20;31.40;;;;;;5092842;28;19914;-76
2022/05/03 10:50:12;;;;;;;4.10;1.92;;;26.20;31.40;;;;;;5092640;28;20039;-76
2022/05/03 10:52:43;;;;;;;3.17;1.90;;;26.30;32.60;;;;;;5093248;28;20104;-77
2022/05/03 10:55:10;;;;;;;;;;;26.20;31.40;;;;;;5093005;28;20024;-76
2022/05/03 10:58:13;;;;;;;2.95;1.92;;;26.20;30.50;;;;;;5092796;28;20225;-76
2022/05/03 11:01:06;;;;;;;2.50;1.60;;;26.10;31.80;;;;;;5092733;28;20414;-76
2022/05/03 11:03:33;;;;;;;3.28;1.80;;;25.90;31.20;;;;;;5092870;28;20106;-76
2022/05/03 11:06:18;;;;;;;2.53;1.70;;;25.70;31.30;;;;;;5092369;28;20051;-76
2022/05/03 11:11:39;;;;;;;2.75;1.25;;;25.60;31.50;;;;;;5092747;28;20095;-76
2022/05/03 11:14:05;;;;;;;2.35;1.70;;;25.60;31.30;;;;;;5091688;28;20052;-76
2022/05/03 11:16:37;;;;;;;3.35;1.60;;;25.50;31.20;;;;;;5108326;28;20370;-76
2022/05/03 11:19:13;;;;;;;2.28;1.60;;;25.50;31.40;;;;;;5092175;28;20131;-76
2022/05/03 11:21:40;;;;;;;4.22;1.70;;;25.50;31.70;;;;;;5092401;28;20034;-76
2022/05/03 11:24:15;;;;;;;2.33;1.50;;;25.50;31.30;;;;;;5091799;28;20036;-76
2022/05/03 11:26:41;;;;;;;2.65;1.60;;;25.40;31.40;;;;;;5092583;28;20020;-76
2022/05/03 11:29:07;;;;;;;3.30;1.65;;;25.40;32.60;;;;;;5091697;28;20440;-76
2022/05/03 11:31:33;;;;;;;2.92;1.60;;;25.40;31.10;;;;;;5092500;28;20032;-75
2022/05/03 11:33:59;;;;;;;1.80;1.35;;;25.30;31.90;;;;;;5092377;28;20107;-76
2022/05/03 11:36:27;;;;;;;4.45;1.52;;;25.30;32.50;;;;;;5092124;28;20028;-76
2022/05/03 11:38:54;;;;;;;5.60;1.80;;;25.40;32.20;;;;;;5091855;28;20122;-75
2022/05/03 11:41:24;;;;;;;4.40;1.80;;;25.30;31.60;;;;;;5091546;28;20032;-76
2022/05/03 11:43:50;;;;;;;2.25;1.63;;;25.30;32.70;;;;;;5092057;28;20027;-76
2022/05/03 11:46:16;;;;;;;2.92;1.55;;;25.40;32.10;;;;;;5091638;28;20404;-75
2022/05/03 11:48:43;;;;;;;2.45;1.50;;;25.30;32.00;;;;;;5092240;28;20112;-75
2022/05/03 11:56:47;;;;;;;5.60;1.95;;;25.30;32.30;;;;;;5091982;28;20093;-76
2022/05/03 11:59:14;;;;;;;3.30;1.60;;;25.30;32.20;;;;;;5090915;28;20024;-76
2022/05/03 12:01:40;;;;;;;5.28;1.65;;;25.20;32.30;;;;;;5091845;28;20046;-76
2022/05/03 12:04:08;;;;;;;3.03;1.92;;;25.20;32.90;;;;;;5091290;28;20111;-76
2022/05/03 12:06:44;;;;;;;3.80;2.25;;;25.20;32.90;;;;;;5092021;28;20468;-75
2022/05/03 12:09:11;;;;;;;3.63;1.80;;;25.20;33.70;;;;;;5091658;28;20038;-76
2022/05/03 12:14:32;;;;;;;4.18;1.90;;;25.10;32.80;;;;;;5091228;28;20055;-76
2022/05/03 12:16:58;;;;;;;3.05;2.00;;;25.00;33.50;;;;;;5091649;28;20494;-76
2022/05/03 12:19:24;;;;;;;4.72;1.90;;;24.80;33.70;;;;;;5091385;28;20024;-75
2022/05/03 12:21:50;;;;;;;4.47;2.30;;;24.70;34.30;;;;;;5107577;28;20346;-75
2022/05/03 12:24:16;;;;;;;3.40;2.15;;;24.60;34.40;;;;;;5090993;28;20057;-75
2022/05/03 12:26:42;;;;;;;4.05;1.75;;;24.50;34.10;;;;;;5091706;28;20032;-75
2022/05/03 12:29:08;;;;;;;2.47;1.67;;;24.50;34.50;;;;;;5091602;28;20028;-75
2022/05/03 12:31:40;;;;;;;8.25;2.20;;;24.50;34.80;;;;;;5091732;28;20048;-74
2022/05/03 12:34:28;;;;;;;4.45;2.50;;;24.40;36.50;;;;;;5091007;28;20032;-76
2022/05/03 12:37:02;;;;;;;3.63;2.38;;;24.20;37.90;;;;;;5091844;28;20099;-75
2022/05/03 12:39:30;;;;;;;4.30;2.45;;;24.00;37.30;;;;;;5090955;28;20028;-75
2022/05/03 12:42:10;;;;;;;3.47;2.30;;;23.80;38.10;;;;;;5091854;28;20032;-76
2022/05/03 12:44:54;;;;;;;3.85;2.15;;;23.70;38.60;;;;;;5091644;28;20031;-76
2022/05/03 12:47:21;;;;;;;6.32;2.42;;;23.70;39.10;;;;;;5091127;28;20028;-75
2022/05/03 12:49:47;;;;;;;4.93;2.40;;;23.60;39.60;;;;;;5091641;28;20058;-75
2022/05/03 12:52:13;;;;;;;5.38;2.35;;;23.50;40.50;;;;;;5091303;28;20388;-76
2022/05/03 12:54:41;;;;;;;5.82;1.85;;;23.40;40.90;;;;;;5091663;28;20020;-76
2022/05/03 12:59:51;;;;;;;6.78;2.42;;;23.00;41.30;;;;;;5091824;28;20098;-75
2022/05/03 13:02:17;;;;;;;4.95;2.10;;;22.80;42.10;;;;;;5090879;28;20028;-75
2022/05/03 13:04:42;;;;;;;3.55;1.92;;;22.70;41.60;;;;;;5094110;28;20110;-75
2022/05/03 13:07:08;;;;;;;6.63;2.05;;;22.40;41.80;;;;;;5094524;28;20047;-76
2022/05/03 13:09:34;;;;;;;3.95;2.00;;;22.30;42.20;;;;;;5094644;28;20103;-75
2022/05/03 13:12:01;;;;;;;2.95;1.95;;;22.20;42.70;;;;;;5095018;28;20023;-75
2022/05/03 13:14:29;;;;;;;2.97;1.83;;;22.20;43.20;;;;;;5094058;28;20269;-74
2022/05/03 13:16:55;;;;;;;6.85;2.35;;;22.10;43.60;;;;;;5094554;28;20444;-76
2022/05/03 13:19:21;;;;;;;5.10;2.70;;;22.10;44.00;;;;;;5092970;28;20028;-75
2022/05/03 13:21:48;;;;;;;4.85;2.53;;;22.00;44.20;;;;;;5094887;28;20020;-75
2022/05/03 13:24:14;;;;;;;2.45;2.13;;;21.90;43.90;;;;;;5094281;28;20028;-74
2022/05/03 13:26:40;;;;;;;2.80;2.00;;;21.90;43.70;;;;;;5094768;28;20389;-75
2022/05/03 13:29:12;;;;;;;5.22;2.83;;;21.90;44.50;;;;;;5094704;28;20053;-76
2022/05/03 13:31:38;;;;;;;3.88;2.08;;;21.90;44.00;;;;;;5094719;28;20020;-75
2022/05/03 13:34:04;;;;;;;3.45;2.08;;;21.90;43.60;;;;;;5094814;28;20035;-75
2022/05/03 13:41:59;;;;;;;2.92;1.75;;;22.00;42.20;;;;;;5093266;28;20460;-76
2022/05/03 13:44:27;;;;;;;5.97;1.70;;;22.10;41.50;;;;;;5093568;28;20055;-75
2022/05/03 13:46:53;;;;;;;1.88;1.35;;;22.10;41.60;;;;;;5094075;28;20519;-75
2022/05/03 13:49:19;;;;;;;2.90;1.30;;;22.20;40.60;;;;;;5093757;28;20024;-75
2022/05/03 13:51:46;;;;;;;3.05;1.42;;;22.30;40.40;;;;;;5094243;28;20104;-75
2022/05/03 13:54:12;;;;;;;1.65;1.42;;;22.30;40.10;;;;;;5093610;28;20428;-76
2022/05/03 13:56:37;;;;;;;3.85;1.73;;;22.40;40.50;;;;;;5094501;28;20116;-75
2022/05/03 13:59:04;;;;;;;3.67;1.58;;;22.40;39.70;;;;;;5094030;28;20028;-75
2022/05/03 14:01:31;;;;;;;2.80;1.75;;;22.50;39.60;;;;;;5093449;28;20429;-75